createdAt,value
2023-07-01T00:02:15.272Z,13.75
2023-07-01T00:05:01.031Z,13.76
2023-07-01T00:07:47.370Z,13.76
2023-07-01T00:10:32.668Z,13.78
2023-07-01T00:13:18.070Z,13.78
2023-07-01T00:16:05.327Z,13.73
2023-07-01T00:18:51.057Z,13.62
2023-07-01T00:21:36.431Z,13.55
2023-07-01T00:24:21.801Z,13.51
2023-07-01T00:27:07.363Z,13.48
2023-07-01T00:29:53.020Z,13.44
2023-07-01T00:32:38.701Z,13.43
2023-07-01T00:35:24.138Z,13.43
2023-07-01T00:38:10.039Z,13.42
2023-07-01T00:40:55.322Z,13.41
2023-07-01T00:43:41.963Z,13.40
2023-07-01T00:46:27.708Z,13.40
2023-07-01T00:49:14.528Z,13.41
2023-07-01T00:52:01.190Z,13.37
2023-07-01T00:54:46.552Z,13.34
2023-07-01T00:57:33.138Z,13.34
2023-07-01T01:00:19.708Z,13.32
2023-07-01T01:03:16.245Z,13.30
2023-07-01T01:06:34.881Z,13.30
2023-07-01T01:09:31.098Z,13.32
2023-07-01T01:12:19.666Z,13.33
2023-07-01T01:15:05.757Z,13.35
2023-07-01T01:17:53.663Z,13.36
2023-07-01T01:20:41.125Z,13.38
2023-07-01T01:23:28.575Z,13.40
2023-07-01T01:26:19.898Z,13.39
2023-07-01T01:29:07.593Z,13.42
2023-07-01T01:31:53.021Z,13.39
2023-07-01T01:34:38.480Z,13.38
2023-07-01T01:37:53.380Z,13.36
2023-07-01T01:40:45.191Z,13.33
2023-07-01T01:43:38.884Z,13.23
2023-07-01T01:46:26.415Z,12.98
2023-07-01T01:49:14.144Z,12.83
2023-07-01T01:52:01.497Z,12.69
2023-07-01T01:54:48.975Z,12.61
2023-07-01T01:57:35.410Z,12.56
2023-07-01T02:00:21.766Z,12.52
2023-07-01T02:03:07.520Z,12.49
2023-07-01T02:05:53.217Z,12.42
2023-07-01T02:08:41.134Z,12.38
2023-07-01T02:11:26.459Z,12.30
2023-07-01T02:14:11.898Z,12.24
2023-07-01T02:16:57.739Z,12.20
2023-07-01T02:19:43.697Z,12.11
2023-07-01T02:22:29.011Z,12.05
2023-07-01T02:25:14.298Z,11.99
2023-07-01T02:27:59.750Z,11.97
2023-07-01T02:30:45.548Z,11.93
2023-07-01T02:33:31.573Z,11.93
2023-07-01T02:36:16.911Z,11.90
2023-07-01T02:39:02.336Z,11.90
2023-07-01T02:41:48.458Z,11.89
2023-07-01T02:44:34.010Z,11.88
2023-07-01T02:47:19.687Z,11.86
2023-07-01T02:50:05.721Z,11.87
2023-07-01T02:52:51.783Z,11.86
2023-07-01T02:55:37.563Z,11.90
2023-07-01T02:58:23.605Z,11.97
2023-07-01T03:01:09.276Z,11.98
2023-07-01T03:03:56.668Z,11.98
2023-07-01T03:06:43.611Z,11.98
2023-07-01T03:09:29.263Z,11.98
2023-07-01T03:12:14.788Z,11.98
2023-07-01T03:15:00.232Z,11.99
2023-07-01T03:17:45.486Z,12.00
2023-07-01T03:20:30.739Z,12.04
2023-07-01T03:23:16.272Z,12.07
2023-07-01T03:26:01.529Z,12.04
2023-07-01T03:28:46.818Z,11.99
2023-07-01T03:31:34.396Z,11.95
2023-07-01T03:34:23.285Z,11.93
2023-07-01T03:37:08.686Z,11.97
2023-07-01T03:39:54.164Z,12.05
2023-07-01T03:42:43.301Z,12.08
2023-07-01T03:45:28.732Z,12.07
2023-07-01T03:48:14.321Z,12.07
2023-07-01T03:50:59.408Z,12.08
2023-07-01T03:53:44.877Z,12.10
2023-07-01T03:56:30.474Z,12.10
2023-07-01T03:59:16.077Z,12.09
2023-07-01T04:02:01.979Z,12.09
2023-07-01T04:04:47.401Z,12.09
2023-07-01T04:07:32.760Z,12.11
2023-07-01T04:10:18.140Z,12.08
2023-07-01T04:13:05.752Z,12.10
2023-07-01T04:15:51.713Z,12.15
2023-07-01T04:18:37.236Z,12.20
2023-07-01T04:21:22.847Z,12.24
2023-07-01T04:24:08.896Z,12.27
2023-07-01T04:26:54.218Z,12.30
2023-07-01T04:29:39.566Z,12.34
2023-07-01T04:32:25.139Z,12.39
2023-07-01T04:35:11.259Z,12.41
2023-07-01T04:37:56.877Z,12.44
2023-07-01T04:40:42.200Z,12.46
2023-07-01T04:43:27.617Z,12.47
2023-07-01T04:46:12.827Z,12.48
2023-07-01T04:48:58.420Z,12.51
2023-07-01T04:51:44.234Z,12.53
2023-07-01T04:54:29.657Z,12.54
2023-07-01T04:57:15.191Z,12.56
2023-07-01T05:00:00.792Z,12.58
2023-07-01T05:02:46.377Z,12.60
2023-07-01T05:05:32.391Z,12.63
2023-07-01T05:08:17.861Z,12.65
2023-07-01T05:11:04.536Z,12.68
2023-07-01T05:13:49.867Z,12.68
2023-07-01T05:16:35.336Z,12.71
2023-07-01T05:19:20.742Z,12.72
2023-07-01T05:22:06.040Z,12.74
2023-07-01T05:24:51.529Z,12.76
2023-07-01T05:27:36.932Z,12.79
2023-07-01T05:30:22.288Z,12.80
2023-07-01T05:33:08.109Z,12.80
2023-07-01T05:35:53.642Z,12.86
2023-07-01T05:38:41.290Z,12.90
2023-07-01T05:41:26.725Z,12.95
2023-07-01T05:44:12.344Z,13.02
2023-07-01T05:46:58.270Z,13.15
2023-07-01T05:49:43.652Z,13.28
2023-07-01T05:52:29.083Z,13.33
2023-07-01T05:55:14.519Z,13.26
2023-07-01T05:57:59.919Z,13.13
2023-07-01T06:00:46.823Z,13.01
2023-07-01T06:03:32.476Z,12.94
2023-07-01T06:06:18.021Z,12.91
2023-07-01T06:09:03.800Z,12.90
2023-07-01T06:11:49.351Z,12.88
2023-07-01T06:14:34.801Z,12.88
2023-07-01T06:17:20.205Z,12.85
2023-07-01T06:20:06.606Z,12.83
2023-07-01T06:22:52.498Z,12.84
2023-07-01T06:25:38.050Z,12.83
2023-07-01T06:28:23.860Z,12.79
2023-07-01T06:31:09.529Z,12.80
2023-07-01T06:33:55.236Z,12.88
2023-07-01T06:36:40.559Z,12.92
2023-07-01T06:39:25.962Z,13.00
2023-07-01T06:42:11.755Z,13.14
2023-07-01T06:44:56.996Z,13.24
2023-07-01T06:47:42.595Z,13.29
2023-07-01T06:50:28.110Z,13.32
2023-07-01T06:53:13.578Z,13.30
2023-07-01T06:55:59.056Z,13.28
2023-07-01T06:58:44.365Z,13.30
2023-07-01T07:01:29.864Z,13.36
2023-07-01T07:04:15.868Z,13.37
2023-07-01T07:07:01.401Z,13.51
2023-07-01T07:09:46.940Z,13.72
2023-07-01T07:12:32.273Z,13.84
2023-07-01T07:15:17.795Z,13.85
2023-07-01T07:18:03.595Z,13.94
2023-07-01T07:20:49.280Z,14.05
2023-07-01T07:23:34.996Z,14.11
2023-07-01T07:26:20.742Z,14.19
2023-07-01T07:29:06.388Z,14.27
2023-07-01T07:31:53.504Z,14.32
2023-07-01T07:34:39.826Z,14.23
2023-07-01T07:37:25.534Z,14.16
2023-07-01T07:40:11.390Z,14.14
2023-07-01T07:42:56.888Z,14.17
2023-07-01T07:45:42.368Z,14.36
2023-07-01T07:48:27.702Z,14.52
2023-07-01T07:51:13.019Z,14.63
2023-07-01T07:53:58.456Z,14.71
2023-07-01T07:56:43.822Z,14.75
2023-07-01T07:59:30.185Z,14.78
2023-07-01T08:02:15.647Z,14.64
2023-07-01T08:05:01.288Z,14.55
2023-07-01T08:07:48.150Z,14.58
2023-07-01T08:10:33.300Z,14.56
2023-07-01T08:13:18.788Z,14.53
2023-07-01T08:16:05.897Z,14.58
2023-07-01T08:18:51.550Z,14.62
2023-07-01T08:21:39.189Z,14.71
2023-07-01T08:24:24.574Z,14.82
2023-07-01T08:27:09.957Z,15.00
2023-07-01T08:29:55.226Z,15.30
2023-07-01T08:32:41.779Z,15.42
2023-07-01T08:35:27.677Z,15.39
2023-07-01T08:38:13.215Z,15.33
2023-07-01T08:41:04.578Z,15.32
2023-07-01T08:43:53.436Z,15.43
2023-07-01T08:46:41.703Z,15.61
2023-07-01T08:49:29.941Z,15.63
2023-07-01T08:52:18.658Z,15.53
2023-07-01T08:55:05.420Z,15.60
2023-07-01T08:57:50.924Z,15.62
2023-07-01T09:00:36.459Z,15.60
2023-07-01T09:03:22.936Z,15.57
2023-07-01T09:06:08.873Z,15.54
2023-07-01T09:08:55.386Z,15.52
2023-07-01T09:11:41.661Z,15.44
2023-07-01T09:14:27.372Z,15.36
2023-07-01T09:17:35.371Z,15.44
2023-07-01T09:20:20.837Z,15.67
2023-07-01T09:23:06.314Z,15.76
2023-07-01T09:25:51.696Z,15.88
2023-07-01T09:28:38.354Z,15.89
2023-07-01T09:31:23.991Z,15.80
2023-07-01T09:34:10.596Z,15.73
2023-07-01T09:36:56.026Z,15.78
2023-07-01T09:39:41.695Z,16.03
2023-07-01T09:42:27.040Z,16.41
2023-07-01T09:45:12.799Z,16.37
2023-07-01T09:47:58.334Z,16.11
2023-07-01T09:50:44.022Z,16.10
2023-07-01T09:53:33.230Z,16.10
2023-07-01T09:56:20.232Z,16.07
2023-07-01T09:59:06.729Z,16.10
2023-07-01T10:01:56.276Z,16.09
2023-07-01T10:04:42.115Z,16.15
2023-07-01T10:07:27.519Z,16.14
2023-07-01T10:10:14.408Z,16.14
2023-07-01T10:13:02.848Z,16.09
2023-07-01T10:15:48.498Z,15.88
2023-07-01T10:18:34.491Z,15.82
2023-07-01T10:21:29.064Z,15.60
2023-07-01T10:24:39.351Z,15.62
2023-07-01T10:27:44.113Z,15.68
2023-07-01T10:30:55.678Z,15.70
2023-07-01T10:33:41.240Z,15.95
2023-07-01T10:36:26.984Z,16.07
2023-07-01T10:39:33.459Z,16.42
2023-07-01T10:42:32.699Z,16.39
2023-07-01T10:45:18.345Z,16.18
2023-07-01T10:48:03.625Z,16.20
2023-07-01T10:51:08.860Z,16.51
2023-07-01T10:54:00.621Z,16.74
2023-07-01T10:57:13.651Z,16.78
2023-07-01T11:00:38.196Z,16.79
2023-07-01T11:03:36.845Z,16.66
2023-07-01T11:06:23.401Z,16.35
2023-07-01T11:09:09.105Z,15.97
2023-07-01T11:11:55.850Z,15.88
2023-07-01T11:14:41.416Z,16.09
2023-07-01T11:17:27.716Z,16.19
2023-07-01T11:20:13.505Z,16.29
2023-07-01T11:22:59.621Z,16.58
2023-07-01T11:25:45.814Z,16.99
2023-07-01T11:28:35.900Z,17.44
2023-07-01T11:31:23.978Z,17.51
2023-07-01T11:34:11.880Z,17.52
2023-07-01T11:36:58.735Z,17.79
2023-07-01T11:39:47.452Z,18.09
2023-07-01T11:42:32.990Z,18.24
2023-07-01T11:45:18.365Z,17.87
2023-07-01T11:48:03.848Z,17.81
2023-07-01T11:50:53.677Z,17.84
2023-07-01T11:53:58.334Z,17.94
2023-07-01T11:56:45.105Z,18.07
2023-07-01T11:59:39.074Z,18.20
2023-07-01T12:02:32.443Z,18.26
2023-07-01T12:05:21.499Z,17.90
2023-07-01T12:08:06.784Z,17.69
2023-07-01T12:10:53.285Z,17.44
2023-07-01T12:13:38.981Z,17.31
2023-07-01T12:16:43.931Z,17.30
2023-07-01T12:19:31.681Z,17.76
2023-07-01T12:22:17.283Z,18.37
2023-07-01T12:25:04.057Z,18.48
2023-07-01T12:27:50.143Z,18.72
2023-07-01T12:30:35.874Z,18.96
2023-07-01T12:33:21.603Z,18.95
2023-07-01T12:36:07.451Z,18.86
2023-07-01T12:38:53.698Z,18.83
2023-07-01T12:41:41.122Z,19.08
2023-07-01T12:44:28.424Z,19.51
2023-07-01T12:47:13.798Z,19.89
2023-07-01T12:49:59.094Z,19.90
2023-07-01T12:52:44.531Z,19.22
2023-07-01T12:55:30.025Z,18.94
2023-07-01T12:58:15.640Z,18.48
2023-07-01T13:01:06.768Z,18.44
2023-07-01T13:03:52.983Z,18.58
2023-07-01T13:06:40.799Z,18.37
2023-07-01T13:09:44.792Z,18.43
2023-07-01T13:12:30.182Z,18.42
2023-07-01T13:15:52.546Z,18.14
2023-07-01T13:18:37.766Z,17.76
2023-07-01T13:21:23.332Z,17.46
2023-07-01T13:24:11.434Z,17.67
2023-07-01T13:27:02.161Z,18.02
2023-07-01T13:29:47.520Z,18.28
2023-07-01T13:32:32.945Z,18.23
2023-07-01T13:35:18.366Z,17.92
2023-07-01T13:38:09.212Z,17.94
2023-07-01T13:40:57.791Z,18.19
2023-07-01T13:43:43.458Z,18.33
2023-07-01T13:46:49.275Z,18.71
2023-07-01T13:49:35.264Z,19.17
2023-07-01T13:52:21.630Z,19.53
2023-07-01T13:55:10.054Z,19.46
2023-07-01T13:57:55.684Z,19.75
2023-07-01T14:00:48.105Z,19.76
2023-07-01T14:03:47.271Z,19.15
2023-07-01T14:06:38.358Z,18.46
2023-07-01T14:09:29.423Z,18.16
2023-07-01T14:12:18.144Z,18.12
2023-07-01T14:15:32.526Z,18.07
2023-07-01T14:18:21.135Z,18.25
2023-07-01T14:21:06.916Z,18.33
2023-07-01T14:23:56.734Z,18.29
2023-07-01T14:26:44.108Z,18.61
2023-07-01T14:29:29.617Z,19.05
2023-07-01T14:32:15.451Z,19.69
2023-07-01T14:35:01.088Z,20.23
2023-07-01T14:37:49.857Z,20.65
2023-07-01T14:40:36.782Z,20.99
2023-07-01T14:43:22.405Z,21.05
2023-07-01T14:46:07.724Z,20.67
2023-07-01T14:48:53.477Z,19.96
2023-07-01T14:51:39.696Z,19.47
2023-07-01T14:54:25.497Z,19.21
2023-07-01T14:57:11.044Z,19.00
2023-07-01T14:59:56.369Z,18.72
2023-07-01T15:02:41.798Z,18.61
2023-07-01T15:05:27.120Z,18.64
2023-07-01T15:08:12.420Z,18.68
2023-07-01T15:10:57.728Z,19.02
2023-07-01T15:13:43.502Z,19.55
2023-07-01T15:16:29.868Z,20.07
2023-07-01T15:19:15.619Z,20.40
2023-07-01T15:22:01.279Z,20.53
2023-07-01T15:24:46.926Z,20.87
2023-07-01T15:27:32.282Z,21.09
2023-07-01T15:30:17.913Z,20.74
2023-07-01T15:33:04.342Z,19.47
2023-07-01T15:35:50.700Z,18.74
2023-07-01T15:38:36.349Z,18.45
2023-07-01T15:41:25.650Z,18.50
2023-07-01T15:44:19.500Z,18.51
2023-07-01T15:47:05.036Z,18.45
2023-07-01T15:49:50.990Z,18.30
2023-07-01T15:52:37.015Z,18.18
2023-07-01T15:55:22.852Z,18.33
2023-07-01T15:58:08.880Z,18.23
2023-07-01T16:00:54.542Z,18.04
2023-07-01T16:03:40.136Z,18.15
2023-07-01T16:06:25.941Z,18.42
2023-07-01T16:09:42.160Z,18.48
2023-07-01T16:12:35.838Z,18.69
2023-07-01T16:15:23.080Z,18.91
2023-07-01T16:18:30.283Z,19.04
2023-07-01T16:21:20.056Z,19.01
2023-07-01T16:24:29.337Z,19.24
2023-07-01T16:27:17.647Z,19.09
2023-07-01T16:30:04.304Z,19.13
2023-07-01T16:32:58.468Z,19.02
2023-07-01T16:35:47.226Z,19.04
2023-07-01T16:38:33.677Z,19.33
2023-07-01T16:41:23.454Z,19.72
2023-07-01T16:44:09.485Z,20.01
2023-07-01T16:46:55.950Z,19.66
2023-07-01T16:49:41.449Z,19.39
2023-07-01T16:52:28.845Z,18.99
2023-07-01T16:55:40.298Z,18.86
2023-07-01T16:58:25.798Z,18.36
2023-07-01T17:01:20.158Z,18.03
2023-07-01T17:04:06.115Z,17.51
2023-07-01T17:06:51.733Z,17.26
2023-07-01T17:09:42.407Z,17.24
2023-07-01T17:12:32.447Z,17.61
2023-07-01T17:15:30.160Z,17.74
2023-07-01T17:18:17.907Z,17.49
2023-07-01T17:21:03.618Z,17.32
2023-07-01T17:23:49.358Z,17.15
2023-07-01T17:26:34.621Z,17.05
2023-07-01T17:29:20.008Z,17.00
2023-07-01T17:32:06.125Z,16.98
2023-07-01T17:35:17.172Z,16.88
2023-07-01T17:38:03.211Z,16.84
2023-07-01T17:40:48.515Z,17.01
2023-07-01T17:43:33.808Z,17.30
2023-07-01T17:46:19.234Z,17.26
2023-07-01T17:49:05.362Z,17.10
2023-07-01T17:51:50.999Z,16.96
2023-07-01T17:54:36.423Z,16.76
2023-07-01T17:57:22.801Z,16.58
2023-07-01T18:00:08.553Z,16.50
2023-07-01T18:03:00.016Z,16.35
2023-07-01T18:05:45.921Z,16.23
2023-07-01T18:08:31.379Z,16.10
2023-07-01T18:11:16.758Z,16.01
2023-07-01T18:14:02.917Z,15.85
2023-07-01T18:16:50.549Z,15.83
2023-07-01T18:19:37.762Z,15.83
2023-07-01T18:22:23.192Z,15.76
2023-07-01T18:25:10.050Z,15.53
2023-07-01T18:27:55.680Z,15.36
2023-07-01T18:30:41.348Z,15.28
2023-07-01T18:33:28.564Z,15.29
2023-07-01T18:36:14.534Z,15.44
2023-07-01T18:39:00.230Z,15.68
2023-07-01T18:41:45.683Z,15.66
2023-07-01T18:44:31.250Z,15.52
2023-07-01T18:47:16.665Z,15.40
2023-07-01T18:50:02.108Z,15.29
2023-07-01T18:52:47.594Z,15.25
2023-07-01T18:55:33.196Z,15.38
2023-07-01T18:58:18.608Z,15.48
2023-07-01T19:01:04.328Z,15.56
2023-07-01T19:03:50.047Z,15.39
2023-07-01T19:06:35.458Z,15.28
2023-07-01T19:09:20.781Z,15.22
2023-07-01T19:12:06.326Z,15.09
2023-07-01T19:14:51.712Z,15.06
2023-07-01T19:17:37.299Z,15.04
2023-07-01T19:20:41.311Z,15.11
2023-07-01T19:23:34.083Z,15.11
2023-07-01T19:26:19.697Z,14.89
2023-07-01T19:29:08.045Z,14.75
2023-07-01T19:31:53.401Z,14.59
2023-07-01T19:34:41.166Z,14.50
2023-07-01T19:37:26.570Z,14.45
2023-07-01T19:40:12.875Z,14.41
2023-07-01T19:42:58.178Z,14.45
2023-07-01T19:45:44.432Z,14.51
2023-07-01T19:48:30.022Z,14.65
2023-07-01T19:51:15.545Z,14.72
2023-07-01T19:54:01.034Z,14.76
2023-07-01T19:56:46.647Z,14.75
2023-07-01T19:59:32.266Z,14.71
2023-07-01T20:02:17.576Z,14.62
2023-07-01T20:05:07.216Z,14.42
2023-07-01T20:07:53.029Z,14.29
2023-07-01T20:10:39.241Z,14.16
2023-07-01T20:13:24.746Z,14.04
2023-07-01T20:16:10.720Z,13.96
2023-07-01T20:18:56.491Z,13.87
2023-07-01T20:21:42.093Z,13.80
2023-07-01T20:24:27.752Z,13.71
2023-07-01T20:27:23.416Z,13.66
2023-07-01T20:30:11.526Z,13.62
2023-07-01T20:32:57.550Z,13.60
2023-07-01T20:35:43.037Z,13.59
2023-07-01T20:38:28.312Z,13.59
2023-07-01T20:41:13.820Z,13.60
2023-07-01T20:43:58.952Z,13.64
2023-07-01T20:46:47.779Z,13.66
2023-07-01T20:49:34.922Z,13.68
2023-07-01T20:52:21.247Z,13.68
2023-07-01T20:55:09.442Z,13.69
2023-07-01T20:57:55.110Z,13.70
2023-07-01T21:00:40.465Z,13.68
2023-07-01T21:03:26.435Z,13.66
2023-07-01T21:06:12.353Z,13.61
2023-07-01T21:08:57.689Z,13.52
2023-07-01T21:11:45.103Z,13.43
2023-07-01T21:14:30.873Z,13.39
2023-07-01T21:17:17.768Z,13.34
2023-07-01T21:20:03.915Z,13.29
2023-07-01T21:22:50.975Z,13.21
2023-07-01T21:25:36.456Z,13.16
2023-07-01T21:28:21.851Z,13.11
2023-07-01T21:31:07.246Z,13.03
2023-07-01T21:33:55.847Z,12.98
2023-07-01T21:36:43.519Z,12.89
2023-07-01T21:39:28.856Z,12.85
2023-07-01T21:42:22.535Z,12.80
2023-07-01T21:45:22.470Z,12.72
2023-07-01T21:48:12.386Z,12.69
2023-07-01T21:51:08.591Z,12.66
2023-07-01T21:53:54.218Z,12.61
2023-07-01T21:56:41.960Z,12.57
2023-07-01T21:59:28.664Z,12.49
2023-07-01T22:02:24.632Z,12.44
2023-07-01T22:05:14.757Z,12.43
2023-07-01T22:08:00.351Z,12.39
2023-07-01T22:10:56.960Z,12.39
2023-07-01T22:13:44.869Z,12.40
2023-07-01T22:16:30.310Z,12.41
2023-07-01T22:19:15.778Z,12.43
2023-07-01T22:22:01.106Z,12.46
2023-07-01T22:24:47.581Z,12.49
2023-07-01T22:27:33.189Z,12.53
2023-07-01T22:30:19.436Z,12.55
2023-07-01T22:33:05.228Z,12.56
2023-07-01T22:35:51.210Z,12.59
2023-07-01T22:38:36.757Z,12.57
2023-07-01T22:41:22.358Z,12.51
2023-07-01T22:44:07.815Z,12.47
2023-07-01T22:46:53.226Z,12.41
2023-07-01T22:49:38.626Z,12.36
2023-07-01T22:52:24.000Z,12.29
2023-07-01T22:55:11.745Z,12.22
2023-07-01T22:57:57.327Z,12.15
2023-07-01T23:00:44.576Z,12.11
2023-07-01T23:03:30.447Z,12.00
2023-07-01T23:06:16.232Z,11.93
2023-07-01T23:09:01.465Z,11.89
2023-07-01T23:11:46.931Z,11.82
2023-07-01T23:14:32.174Z,11.75
2023-07-01T23:17:17.479Z,11.70
2023-07-01T23:20:05.427Z,11.62
2023-07-01T23:22:50.724Z,11.56
2023-07-01T23:25:36.141Z,11.47
2023-07-01T23:28:22.070Z,11.40
2023-07-01T23:31:09.431Z,11.37
2023-07-01T23:33:56.261Z,11.33
2023-07-01T23:36:41.677Z,11.26
2023-07-01T23:39:27.024Z,11.19
2023-07-01T23:42:13.652Z,11.15
2023-07-01T23:44:59.298Z,11.13
2023-07-01T23:47:46.396Z,11.09
2023-07-01T23:50:32.107Z,11.05
2023-07-01T23:53:17.435Z,11.00
2023-07-01T23:56:02.945Z,10.97
2023-07-01T23:58:48.386Z,10.91
